createdAt,value
2022-10-06T00:01:10.034Z,19.08
2022-10-06T00:03:39.032Z,22.92
2022-10-06T00:06:07.421Z,23.65
2022-10-06T00:08:38.148Z,20.77
2022-10-06T00:11:05.823Z,22.40
2022-10-06T00:13:33.396Z,21.77
2022-10-06T00:16:01.318Z,22.88
2022-10-06T00:18:30.240Z,22.83
2022-10-06T00:21:00.149Z,22.25
2022-10-06T00:23:29.246Z,23.38
2022-10-06T00:25:56.805Z,24.30
2022-10-06T00:28:26.429Z,27.33
2022-10-06T00:30:56.650Z,23.77
2022-10-06T00:33:24.459Z,26.50
2022-10-06T00:35:58.470Z,22.92
2022-10-06T00:38:26.295Z,23.30
2022-10-06T00:40:54.128Z,24.90
2022-10-06T00:43:43.328Z,22.08
2022-10-06T00:46:25.127Z,21.13
2022-10-06T00:49:14.217Z,22.80
2022-10-06T00:51:46.015Z,28.48
2022-10-06T00:54:14.151Z,23.70
2022-10-06T00:56:41.789Z,25.90
2022-10-06T00:59:14.368Z,27.65
2022-10-06T01:01:49.950Z,25.92
2022-10-06T01:04:18.075Z,24.42
2022-10-06T01:06:49.662Z,22.73
2022-10-06T01:09:20.076Z,22.92
2022-10-06T01:11:50.440Z,25.05
2022-10-06T01:14:20.087Z,25.00
2022-10-06T01:16:52.196Z,26.45
2022-10-06T01:19:35.636Z,25.52
2022-10-06T01:22:06.883Z,24.70
2022-10-06T01:24:34.702Z,24.50
2022-10-06T01:27:03.492Z,23.52
2022-10-06T01:29:33.985Z,26.73
2022-10-06T01:32:01.711Z,26.10
2022-10-06T01:34:29.267Z,23.33
2022-10-06T01:36:56.840Z,24.25
2022-10-06T01:39:24.215Z,25.10
2022-10-06T01:41:51.915Z,26.80
2022-10-06T01:44:19.291Z,25.40
2022-10-06T01:46:46.695Z,24.83
2022-10-06T01:49:14.119Z,22.10
2022-10-06T01:51:41.961Z,28.92
2022-10-06T01:54:09.383Z,31.17
2022-10-06T01:56:36.720Z,23.92
2022-10-06T01:59:04.178Z,24.95
2022-10-06T02:01:32.202Z,24.83
2022-10-06T02:03:59.721Z,29.40
2022-10-06T02:06:28.779Z,27.33
2022-10-06T02:08:56.171Z,25.30
2022-10-06T02:11:23.574Z,27.88
2022-10-06T02:13:51.540Z,29.48
2022-10-06T02:16:19.265Z,31.70
2022-10-06T02:18:46.893Z,30.15
2022-10-06T02:21:24.012Z,26.88
2022-10-06T02:23:51.551Z,28.70
2022-10-06T02:26:19.414Z,33.35
2022-10-06T02:28:47.413Z,26.42
2022-10-06T02:31:15.476Z,34.28
2022-10-06T02:33:44.208Z,30.63
2022-10-06T02:36:13.745Z,26.38
2022-10-06T02:38:41.908Z,29.05
2022-10-06T02:41:10.887Z,26.30
2022-10-06T02:43:38.903Z,26.25
2022-10-06T02:46:14.354Z,30.20
2022-10-06T02:48:43.437Z,25.13
2022-10-06T02:51:19.978Z,28.90
2022-10-06T02:53:49.084Z,27.95
2022-10-06T02:56:22.532Z,27.90
2022-10-06T02:58:51.296Z,28.92
2022-10-06T03:01:24.580Z,27.48
2022-10-06T03:03:52.299Z,27.55
2022-10-06T03:06:31.352Z,29.88
2022-10-06T03:09:07.739Z,27.27
2022-10-06T03:11:40.801Z,26.63
2022-10-06T03:14:08.602Z,25.77
2022-10-06T03:16:41.325Z,32.85
2022-10-06T03:19:09.684Z,29.25
2022-10-06T03:21:40.799Z,27.38
2022-10-06T03:24:08.696Z,29.45
2022-10-06T03:26:38.710Z,24.60
2022-10-06T03:29:11.362Z,22.30
2022-10-06T03:31:40.122Z,24.13
2022-10-06T03:34:07.876Z,21.55
2022-10-06T03:36:36.258Z,26.73
2022-10-06T03:39:05.919Z,26.95
2022-10-06T03:41:35.618Z,26.25
2022-10-06T03:44:03.799Z,22.45
2022-10-06T03:46:33.947Z,22.13
2022-10-06T03:49:01.888Z,23.88
2022-10-06T03:51:38.656Z,25.38
2022-10-06T03:54:08.159Z,23.15
2022-10-06T03:56:38.257Z,24.92
2022-10-06T03:59:08.195Z,25.73
2022-10-06T04:01:38.568Z,22.08
2022-10-06T04:04:06.810Z,20.92
2022-10-06T04:06:37.214Z,23.38
2022-10-06T04:09:09.305Z,22.75
2022-10-06T04:11:41.450Z,22.63
2022-10-06T04:14:11.330Z,19.90
2022-10-06T04:16:44.524Z,20.63
2022-10-06T04:19:13.729Z,20.25
2022-10-06T04:21:43.818Z,21.13
2022-10-06T04:24:12.214Z,21.15
2022-10-06T04:26:42.246Z,24.38
2022-10-06T04:29:09.535Z,18.25
2022-10-06T04:31:39.524Z,21.48
2022-10-06T04:34:08.109Z,20.10
2022-10-06T04:36:41.723Z,18.95
2022-10-06T04:39:10.847Z,20.83
2022-10-06T04:41:40.614Z,18.42
2022-10-06T04:44:08.933Z,19.80
2022-10-06T04:46:45.019Z,22.45
2022-10-06T04:49:19.420Z,19.15
2022-10-06T04:51:50.427Z,17.92
2022-10-06T04:54:19.143Z,17.30
2022-10-06T04:56:46.846Z,17.40
2022-10-06T04:59:14.153Z,16.23
2022-10-06T05:01:41.544Z,18.45
2022-10-06T05:04:08.929Z,17.80
2022-10-06T05:06:41.774Z,20.02
2022-10-06T05:09:15.979Z,19.13
2022-10-06T05:11:43.468Z,21.85
2022-10-06T05:14:10.935Z,19.42
2022-10-06T05:16:38.502Z,16.63
2022-10-06T05:19:09.476Z,18.00
2022-10-06T05:24:17.972Z,18.13
2022-10-06T05:26:45.273Z,16.85
2022-10-06T05:29:12.528Z,18.80
2022-10-06T05:31:41.463Z,16.95
2022-10-06T05:34:08.882Z,16.52
2022-10-06T05:36:36.530Z,16.08
2022-10-06T05:39:05.269Z,17.20
2022-10-06T05:41:34.463Z,17.65
2022-10-06T05:44:03.821Z,19.67
2022-10-06T05:46:32.730Z,17.55
2022-10-06T05:49:02.017Z,19.50
2022-10-06T05:51:32.062Z,17.65
2022-10-06T05:54:00.107Z,14.35
2022-10-06T05:56:32.463Z,19.38
2022-10-06T05:59:04.860Z,20.90
2022-10-06T06:01:40.351Z,16.65
2022-10-06T06:04:10.317Z,17.40
2022-10-06T06:06:40.937Z,19.02
2022-10-06T06:09:19.458Z,15.20
2022-10-06T06:11:49.297Z,14.52
2022-10-06T06:14:45.102Z,19.52
2022-10-06T06:17:12.442Z,16.40
2022-10-06T06:19:39.798Z,19.65
2022-10-06T06:22:07.037Z,16.90
2022-10-06T06:24:34.397Z,18.73
2022-10-06T06:27:01.683Z,14.82
2022-10-06T06:29:29.012Z,15.93
2022-10-06T06:31:56.338Z,20.10
2022-10-06T06:34:23.664Z,18.60
2022-10-06T06:36:54.006Z,16.67
2022-10-06T06:39:21.843Z,16.08
2022-10-06T06:41:49.332Z,19.23
2022-10-06T06:44:18.133Z,21.10
2022-10-06T06:46:49.925Z,19.80
2022-10-06T06:49:19.310Z,19.15
2022-10-06T06:51:50.616Z,18.58
2022-10-06T06:54:18.490Z,22.13
2022-10-06T06:56:46.827Z,18.10
2022-10-06T06:59:14.385Z,17.15
2022-10-06T07:01:44.699Z,17.10
2022-10-06T07:04:14.206Z,19.42
2022-10-06T07:06:42.636Z,18.23
2022-10-06T07:09:10.750Z,16.10
2022-10-06T07:11:40.416Z,17.40
2022-10-06T07:14:12.065Z,16.85
2022-10-06T07:16:57.782Z,18.95
2022-10-06T07:19:43.352Z,16.38
2022-10-06T07:22:29.052Z,19.38
2022-10-06T07:25:07.422Z,26.27
2022-10-06T07:27:34.961Z,19.05
2022-10-06T07:30:02.907Z,14.70
2022-10-06T07:32:31.226Z,14.20
2022-10-06T07:34:59.015Z,18.20
2022-10-06T07:37:27.621Z,17.02
2022-10-06T07:39:55.107Z,20.48
2022-10-06T07:42:22.435Z,14.45
2022-10-06T07:45:08.633Z,17.08
2022-10-06T07:47:38.406Z,22.67
2022-10-06T07:50:09.408Z,20.45
2022-10-06T07:52:39.624Z,15.65
2022-10-06T07:55:07.902Z,18.08
2022-10-06T07:57:35.634Z,16.88
2022-10-06T08:00:07.614Z,17.65
2022-10-06T08:02:36.065Z,17.08
2022-10-06T08:05:04.773Z,15.38
2022-10-06T08:07:32.171Z,14.10
2022-10-06T08:09:59.486Z,15.50
2022-10-06T08:12:37.925Z,13.60
2022-10-06T08:15:08.046Z,16.33
2022-10-06T08:17:36.852Z,15.10
2022-10-06T08:20:09.382Z,13.68
2022-10-06T08:22:38.928Z,17.30
2022-10-06T08:25:10.529Z,15.32
2022-10-06T08:27:38.582Z,15.13
2022-10-06T08:30:07.522Z,17.58
2022-10-06T08:32:35.461Z,13.25
2022-10-06T08:35:03.172Z,15.75
2022-10-06T08:37:30.395Z,15.80
2022-10-06T08:39:58.023Z,13.40
2022-10-06T08:42:44.960Z,15.48
2022-10-06T08:45:38.615Z,14.25
2022-10-06T08:48:14.210Z,25.83
2022-10-06T08:50:56.865Z,16.38
2022-10-06T08:53:27.262Z,15.85
2022-10-06T08:56:19.728Z,14.70
2022-10-06T08:58:56.039Z,17.25
2022-10-06T09:01:24.690Z,18.58
2022-10-06T09:03:55.366Z,28.55
2022-10-06T09:07:00.641Z,17.60
2022-10-06T09:09:48.720Z,15.25
2022-10-06T09:12:41.605Z,16.67
2022-10-06T09:15:30.221Z,21.08
2022-10-06T09:18:15.601Z,14.80
2022-10-06T09:20:57.481Z,15.02
2022-10-06T09:23:44.023Z,14.45
2022-10-06T09:26:13.218Z,26.45
2022-10-06T09:28:40.883Z,14.75
2022-10-06T09:31:28.459Z,20.45
2022-10-06T09:34:21.961Z,40.90
2022-10-06T09:37:11.029Z,17.70
2022-10-06T09:39:51.152Z,13.75
2022-10-06T09:42:37.883Z,12.23
2022-10-06T09:45:17.870Z,16.27
2022-10-06T09:47:45.985Z,14.70
2022-10-06T09:50:39.722Z,16.27
2022-10-06T09:53:13.040Z,15.82
2022-10-06T09:55:40.265Z,15.63
2022-10-06T09:58:24.020Z,14.57
2022-10-06T10:01:22.112Z,15.77
2022-10-06T10:04:18.888Z,16.65
2022-10-06T10:06:41.911Z,17.30
2022-10-06T10:09:21.821Z,22.13
2022-10-06T10:12:30.195Z,14.98
2022-10-06T10:15:25.725Z,18.10
2022-10-06T10:17:59.454Z,18.75
2022-10-06T10:20:37.868Z,17.23
2022-10-06T10:23:31.746Z,16.80
2022-10-06T10:26:10.075Z,16.45
2022-10-06T10:28:52.952Z,25.77
2022-10-06T10:31:57.310Z,16.00
2022-10-06T10:34:46.546Z,16.65
2022-10-06T10:37:24.535Z,17.20
2022-10-06T10:40:00.353Z,16.05
2022-10-06T10:42:32.209Z,14.88
2022-10-06T10:45:06.429Z,13.90
2022-10-06T10:47:43.121Z,12.88
2022-10-06T10:50:20.705Z,14.95
2022-10-06T10:52:50.959Z,14.52
2022-10-06T10:55:27.702Z,11.73
2022-10-06T10:58:04.506Z,11.70
2022-10-06T11:00:37.740Z,12.57
2022-10-06T11:03:05.412Z,10.48
2022-10-06T11:05:35.430Z,12.20
2022-10-06T11:08:23.375Z,9.00
2022-10-06T11:10:55.817Z,11.85
2022-10-06T11:13:35.101Z,9.85
2022-10-06T11:16:26.205Z,14.75
2022-10-06T11:18:59.305Z,9.45
2022-10-06T11:21:41.589Z,11.75
2022-10-06T11:24:26.882Z,10.75
2022-10-06T11:27:30.742Z,9.30
2022-10-06T11:30:03.966Z,12.10
2022-10-06T11:32:45.382Z,9.80
2022-10-06T11:35:27.136Z,8.27
2022-10-06T11:38:17.513Z,7.40
2022-10-06T11:40:54.838Z,5.43
2022-10-06T11:43:38.413Z,6.93
2022-10-06T11:46:41.429Z,6.07
2022-10-06T11:49:30.463Z,4.57
2022-10-06T11:52:17.657Z,4.65
2022-10-06T11:54:47.461Z,7.82
2022-10-06T11:57:29.445Z,4.47
2022-10-06T12:00:17.988Z,5.72
2022-10-06T12:02:47.159Z,5.60
2022-10-06T12:08:02.136Z,4.28
2022-10-06T12:10:29.433Z,4.65
2022-10-06T12:14:44.451Z,5.38
2022-10-06T12:20:00.810Z,4.05
2022-10-06T12:22:54.226Z,6.22
2022-10-06T12:25:49.050Z,5.25
2022-10-06T12:28:25.675Z,6.25
2022-10-06T12:30:59.064Z,4.05
2022-10-06T12:33:40.702Z,3.08
2022-10-06T12:36:17.751Z,5.35
2022-10-06T12:39:07.003Z,2.35
2022-10-06T12:41:56.288Z,2.25
2022-10-06T12:44:46.022Z,6.60
2022-10-06T12:47:37.479Z,1.77
2022-10-06T12:50:27.957Z,4.38
2022-10-06T12:53:05.695Z,3.47
2022-10-06T12:55:48.224Z,2.25
2022-10-06T12:58:20.208Z,4.90
2022-10-06T13:00:48.262Z,4.47
2022-10-06T13:03:24.588Z,1.65
2022-10-06T13:05:59.366Z,3.70
2022-10-06T13:08:36.697Z,5.13
2022-10-06T13:11:22.249Z,3.22
2022-10-06T13:13:55.251Z,3.45
2022-10-06T13:16:32.346Z,4.97
2022-10-06T13:19:01.495Z,7.05
2022-10-06T13:21:30.847Z,3.22
2022-10-06T13:23:58.115Z,7.78
2022-10-06T13:26:28.391Z,5.43
2022-10-06T13:28:58.191Z,5.30
2022-10-06T13:31:32.050Z,5.30
2022-10-06T13:34:03.009Z,4.57
2022-10-06T13:36:34.088Z,3.40
2022-10-06T13:39:04.279Z,4.35
2022-10-06T13:41:45.137Z,2.45
2022-10-06T13:44:12.378Z,8.77
2022-10-06T13:46:42.485Z,5.22
2022-10-06T13:49:19.028Z,2.50
2022-10-06T13:51:53.187Z,3.33
2022-10-06T13:54:31.224Z,3.05
2022-10-06T13:56:59.154Z,3.47
2022-10-06T13:59:39.275Z,3.78
2022-10-06T14:02:18.887Z,5.45
2022-10-06T14:05:24.516Z,6.18
2022-10-06T14:07:52.817Z,7.32
2022-10-06T14:10:31.682Z,5.78
2022-10-06T14:13:01.618Z,6.85
2022-10-06T14:15:35.919Z,8.68
2022-10-06T14:18:05.134Z,4.93
2022-10-06T14:20:46.310Z,8.20
2022-10-06T14:23:49.524Z,6.78
2022-10-06T14:26:19.767Z,1.95
2022-10-06T14:28:53.076Z,5.57
2022-10-06T14:31:25.690Z,3.97
2022-10-06T14:33:54.715Z,4.72
2022-10-06T14:36:34.730Z,5.38
2022-10-06T14:39:04.228Z,4.85
2022-10-06T14:41:32.082Z,4.43
2022-10-06T14:44:02.063Z,3.58
2022-10-06T14:46:30.282Z,7.32
2022-10-06T14:48:57.967Z,2.53
2022-10-06T14:51:27.293Z,4.43
2022-10-06T14:53:56.804Z,3.25
2022-10-06T14:56:27.058Z,4.20
2022-10-06T14:58:54.285Z,6.13
2022-10-06T15:01:26.845Z,3.70
2022-10-06T15:03:56.880Z,6.55
2022-10-06T15:06:44.064Z,4.60
2022-10-06T15:09:11.857Z,6.05
2022-10-06T15:11:39.455Z,6.63
2022-10-06T15:14:08.878Z,4.65
2022-10-06T15:16:40.827Z,5.53
2022-10-06T15:19:09.321Z,6.70
2022-10-06T15:21:40.004Z,4.82
2022-10-06T15:24:11.197Z,4.50
2022-10-06T15:26:57.188Z,9.43
2022-10-06T15:29:24.543Z,11.45
2022-10-06T15:31:55.392Z,4.40
2022-10-06T15:34:26.754Z,5.47
2022-10-06T15:36:55.715Z,5.30
2022-10-06T15:39:25.727Z,5.78
2022-10-06T15:41:53.694Z,8.38
2022-10-06T15:44:21.555Z,8.73
2022-10-06T15:46:58.423Z,5.72
2022-10-06T15:49:27.245Z,4.97
2022-10-06T15:51:57.043Z,4.63
2022-10-06T15:54:38.329Z,9.65
2022-10-06T15:57:08.790Z,6.05
2022-10-06T15:59:36.812Z,6.68
2022-10-06T16:02:07.930Z,6.93
2022-10-06T16:04:40.438Z,5.30
2022-10-06T16:07:08.742Z,6.22
2022-10-06T16:09:43.100Z,4.55
2022-10-06T16:12:12.704Z,6.72
2022-10-06T16:14:40.252Z,4.30
2022-10-06T16:17:08.446Z,7.05
2022-10-06T16:19:40.379Z,5.60
2022-10-06T16:22:11.321Z,4.15
2022-10-06T16:24:38.726Z,6.20
2022-10-06T16:27:07.165Z,9.77
2022-10-06T16:29:34.471Z,6.40
2022-10-06T16:32:01.762Z,6.07
2022-10-06T16:34:30.590Z,5.70
2022-10-06T16:36:58.825Z,8.10
2022-10-06T16:39:26.208Z,6.63
2022-10-06T16:41:54.339Z,5.53
2022-10-06T16:44:21.797Z,4.82
2022-10-06T16:46:49.110Z,4.45
2022-10-06T16:49:16.472Z,6.35
2022-10-06T16:51:48.423Z,7.60
2022-10-06T16:54:19.911Z,5.95
2022-10-06T16:56:51.753Z,9.55
2022-10-06T16:59:23.866Z,6.30
2022-10-06T17:01:51.534Z,7.10
2022-10-06T17:04:22.791Z,8.10
2022-10-06T17:06:55.147Z,7.40
2022-10-06T17:09:24.827Z,6.90
2022-10-06T17:11:54.459Z,6.80
2022-10-06T17:14:22.641Z,7.40
2022-10-06T17:16:52.565Z,6.07
2022-10-06T17:19:21.728Z,8.38
2022-10-06T17:21:51.743Z,7.03
2022-10-06T17:24:20.894Z,8.30
2022-10-06T17:26:49.662Z,6.35
2022-10-06T17:29:22.055Z,6.97
2022-10-06T17:31:53.549Z,4.20
2022-10-06T17:34:23.559Z,6.97
2022-10-06T17:36:52.851Z,14.32
2022-10-06T17:39:22.521Z,8.23
2022-10-06T17:41:52.082Z,9.68
2022-10-06T17:44:26.228Z,5.32
2022-10-06T17:46:55.770Z,7.88
2022-10-06T17:49:26.957Z,10.75
2022-10-06T17:51:55.433Z,6.72
2022-10-06T17:54:25.321Z,6.25
2022-10-06T17:56:56.076Z,8.52
2022-10-06T17:59:28.685Z,8.93
2022-10-06T18:01:57.740Z,14.20
2022-10-06T18:04:26.785Z,11.57
2022-10-06T18:06:54.969Z,8.43
2022-10-06T18:09:22.993Z,11.93
2022-10-06T18:11:56.099Z,13.32
